Pullman Moscow Regional Airport

Current Flights

Info
Name: Pullman Moscow Regional Airport
Identifier:  PUW/KPUW
Local Time:  15. Jun 23:43
City
Flights per Day
10 flights
Distance: 398km (247mi)
Punctuality
80% (2 flights per day delayed)
Delay Average: 4 minutes
Current Weather
 16 C (Humidity: 67%)
  0kt (0km/h / 0mph) from 0°
  16km (10 mi.)
 
 METAR KPUW 160553Z AUTO 00000KT 10SM CLR 16/10 A2995 RMK AO2 SLP132 T01560100 10267 20156 50003

Current Delays

Departures
N/A
Arrivals
N/A

Destinations

Top Destinations
Airport Flights
per week
Seats
per week
  Seattle (SEA) 63 4,731 9 675
  Seattle (BFI) 7 - 1 0
  Spokane (GEG) 1 - 0 0
  Ellensburg (ELN) 0 - 0 0
  Renton (RNT) 0 - 0 0
  Logan (LGU) 0 - 0 0
  Bellingham (BLI) 0 - 0 0
  Yakima (YKM) 0 - 0 0
  Missoula (MSO) 0 - 0 0
  Boise (BOI) 0 - 0 0
  Denver (DEN) 0 - 0 0
  Scottsdale (SCF) 0 - 0 0
  Spokane (SFF) 0 - 0 0
  Oakland (OAK) 0 - 0 0

Airlines & Planes

Top Airlines
Airline Flights
per Day
Seats
per Day
  Horizon Air 9 675
  Ameriflight 1 -
  Nolinor Aviation 0 -
  National Airlines 0 -
  Novair 0 -
  Flybe Nordic 0 -
Nordwind Airlines 0 -
Jet Charter Inc ( Franklin Lakes Nj ) 0 -
  Empire Airlines 0 -
Top Plane Types
Model Flights Seats
Bombardier Dash 8-400 9.1/day 675/day 675.8666666666667
Fairchild SA227-DC Metro 23 1.1/day - 0
Pilatus PC-12 0.2/day - 0
Piper PA28-181 0.2/day - 0
Cessna C182 0.1/day - 0
Beech E90 King Air 0.1/day - 0
Cessna C750 0.0/day - 0
Cessna C208 0.0/day - 0